Terminal Aerodrome Forecast
Issued by NWS

Home | Current Version | Previous Version | Text Only | Print | Product List | Glossary On
Versions: 1 2 3 4 5 6 7 8 9 10 11 12 13 14 15 16 17 18 19 20 21 22 23 24 25 26
000
FTAK31 PAJK 151722
TAFAPG
TAF
PAPG 151722Z 1518/1618 VRB03KT P6SM VCSH BKN030 OVC040
     FM160300 10004KT 5SM -RA BR SCT015 OVC025 WS020/14025KT
     FM160700 VRB03KT 6SM -RA OVC007
     FM161500 VRB03KT P6SM -RA BKN015 OVC025
     AMD LTD TO CLD VIS AND WIND 1606/1615=

USA.gov is the U.S. government's official web portal to all federal, state and local government web resources and services.